Latest Weather Observations for Omeo

IDV60801

Issued at 4:32 pm EDT Sunday 14 February 2016 (issued every 30 minutes, with the page automatically refreshed every 10 minutes)

About weather observations | Map of weather stations | Latest weather observations for VIC | Other Formats
Station Details ID: 083090 Name: OMEO Lat: -37.10 Lon: 147.60 Height: 689.8 m
Data from the previous 72 hours. | See also: Recent months at Omeo
Date/Time
EDT
Temp
°C
App
Temp
°C
Dew
Point
Rel
Hum
%
Delta-T
°C
Wind Press
QNH
hPa
Press
MSL
hPa
Rain
since 9 am
mm
Dir
 
Spd
km/h
Gust
km/h
Spd
kts
Gust
kts
14/04:30pm 22.1 18.4 12.6 55 5.6 SE 24 39 13 21 1010.2 1007.6 0.0
14/04:00pm 23.1 20.1 13.8 55 5.6 SE 22 37 12 20 1010.0 1007.3 0.0
14/03:30pm 23.2 20.3 13.9 56 5.6 SE 22 39 12 21 1009.9 1007.2 0.0
14/03:00pm 23.1 20.1 13.8 55 5.6 SE 22 35 12 19 1009.9 1007.2 0.0
14/02:30pm 22.8 19.4 13.8 57 5.4 SE 24 37 13 20 1009.8 1007.1 0.0
14/02:00pm 22.9 20.3 13.9 57 5.4 SE 20 28 11 15 1009.7 1007.0 0.0
14/01:30pm 22.7 20.5 14.8 61 4.8 SE 20 30 11 16 1009.8 1007.1 0.0
14/01:00pm 22.1 19.6 14.2 61 4.8 SE 20 30 11 16 1010.1 1007.5 0.0
14/12:30pm 21.2 18.6 13.9 63 4.4 SE 20 32 11 17 1010.5 1007.8 0.0
14/12:00pm 21.4 19.1 14.1 63 4.4 SE 19 30 10 16 1010.6 1007.9 0.0
14/11:30am 22.0 20.6 14.6 63 4.5 SE 15 24 8 13 1011.0 1008.3 0.0
14/11:00am 21.8 20.4 14.4 63 4.5 SE 15 22 8 12 1011.1 1008.4 0.0
14/10:30am 21.3 21.9 14.2 64 4.3 ENE 4 11 2 6 1011.1 1008.4 0.0
14/10:00am 19.4 18.8 12.4 64 4.0 SE 7 13 4 7 1011.2 1008.5 0.0
14/09:30am 19.4 18.7 13.1 67 3.7 ESE 9 15 5 8 1011.3 1008.6 0.0
14/09:00am 19.2 18.5 14.2 73 3.0 SE 11 17 6 9 1011.3 1008.6 0.0
14/08:30am 17.2 16.4 13.9 81 1.9 SE 11 17 6 9 1011.3 1008.6 0.0
14/08:00am 15.7 15.5 13.5 87 1.3 S 7 11 4 6 1010.9 1008.2 0.0
14/07:30am 15.0 15.7 13.4 90 0.9 SSE 2 7 1 4 1010.7 1008.0 0.0
14/07:00am 14.5 14.6 12.7 89 1.0 SSE 4 9 2 5 1010.4 1007.7 0.0
14/06:30am 14.7 15.2 12.9 89 1.0 SE 2 6 1 3 1010.2 1007.6 0.0
14/06:00am 14.8 14.5 13.2 90 0.9 SSW 7 11 4 6 1009.9 1007.2 0.0
14/05:30am 14.7 14.4 13.4 92 0.7 SSW 7 9 4 5 1009.7 1007.0 0.0
14/05:00am 14.7 14.5 13.6 93 0.6 SSW 7 9 4 5 1009.6 1006.9 0.0
14/04:30am 14.3 14.0 13.3 94 0.6 SSW 7 9 4 5 1009.5 1006.8 0.0
14/04:00am 13.4 12.4 12.3 93 0.6 SW 9 13 5 7 1009.8 1007.1 0.0
14/03:30am 13.5 12.2 12.4 93 0.6 SSW 11 15 6 8 1009.8 1007.1 0.0
14/03:00am 13.9 13.1 12.8 93 0.6 SSW 9 13 5 7 1009.9 1007.2 0.0
14/02:30am 14.1 12.9 12.8 92 0.7 SSE 11 17 6 9 1010.0 1007.3 0.0
14/02:00am 14.5 13.7 12.9 90 0.9 S 9 15 5 8 1010.2 1007.6 0.0
14/01:30am 15.0 13.5 13.2 89 1.0 SE 13 24 7 13 1010.4 1007.7 0.0
14/01:00am 15.2 14.1 13.1 87 1.2 SSE 11 17 6 9 1010.4 1007.7 0.0
14/12:30am 15.4 13.7 12.5 83 1.6 SE 13 20 7 11 1010.1 1007.5 0.0
14/12:00am 16.6 14.9 12.6 77 2.3 SSE 13 19 7 10 1010.0 1007.3 0.0
 
Date/Time
EDT
Temp
°C
App
Temp
°C
Dew
Point
Rel
Hum
%
Delta-T
°C
Wind Press
QNH
hPa
Press
MSL
hPa
Rain
since 9 am
mm
Dir
 
Spd
km/h
Gust
km/h
Spd
kts
Gust
kts
13/11:30pm 17.2 16.0 10.3 64 3.8 SSE 7 15 4 8 1009.9 1007.2 0.0
13/11:00pm 18.9 18.6 10.2 57 4.8 SSE 2 7 1 4 1010.0 1007.3 0.0
13/10:30pm 20.8 18.9 10.6 52 5.7 NNW 11 15 6 8 1010.0 1007.3 0.0
13/10:00pm 21.3 20.0 11.1 52 5.8 NNW 9 13 5 7 1010.0 1007.3 0.0
13/09:30pm 22.0 20.6 10.8 49 6.4 NNW 9 13 5 7 1009.9 1007.2 0.0
13/09:00pm 22.9 21.5 11.0 47 6.8 NNW 9 11 5 6 1009.9 1007.2 0.0
13/08:30pm 23.7 22.0 11.1 45 7.3 NW 11 15 6 8 1009.9 1007.2 0.0
13/08:00pm 24.9 23.1 10.8 41 8.1 NNW 11 17 6 9 1009.8 1007.1 0.0
13/07:30pm 26.4 23.7 10.5 37 9.2 NNW 15 20 8 11 1009.8 1007.1 0.0
13/07:00pm 27.4 23.8 10.6 35 9.8 NNW 20 26 11 14 1009.8 1007.1 0.0
13/06:30pm 27.2 24.0 11.3 37 9.3 N 19 32 10 17 1009.8 1007.1 0.0
13/06:00pm 26.7 23.9 11.2 38 9.1 N 17 24 9 13 1010.1 1007.5 0.0
13/05:30pm 27.2 24.1 10.4 35 9.7 NNW 17 24 9 13 1010.2 1007.6 0.0
13/05:00pm 27.5 23.9 10.7 35 9.8 NNW 20 32 11 17 1010.4 1007.7 0.0
13/04:30pm 28.9 25.3 11.9 35 10.2 NNW 22 33 12 18 1010.4 1007.7 0.0
13/04:00pm 28.5 24.8 10.2 32 10.6 NNW 20 28 11 15 1010.5 1007.8 0.0
13/03:30pm 28.7 24.8 10.8 33 10.5 N 22 35 12 19 1010.7 1008.0 0.0
13/03:00pm 29.1 24.8 10.7 32 10.8 NNW 24 35 13 19 1010.8 1008.1 0.0
13/02:30pm 30.0 25.4 9.5 28 11.8 NNW 24 39 13 21 1010.7 1008.0 0.0
13/02:00pm 29.9 26.1 8.9 27 12.0 N 19 30 10 16 1011.4 1008.8 0.0
13/01:30pm 29.8 25.2 6.5 23 12.8 NW 20 33 11 18 1012.0 1009.3 0.0
13/01:00pm 29.5 24.3 7.4 25 12.3 NW 24 39 13 21 1012.2 1009.5 0.0
13/12:30pm 28.5 24.9 12.0 36 9.9 NNW 22 39 12 21 1012.5 1009.8 0.0
13/12:00pm 27.0 24.1 13.0 42 8.4 NNW 20 33 11 18 1012.8 1010.2 0.0
13/11:30am 26.3 23.5 14.4 48 7.3 N 22 32 12 17 1013.1 1010.5 0.0
13/11:00am 23.9 21.3 13.7 53 6.1 NNW 20 30 11 16 1013.7 1011.0 0.0
13/10:30am 22.6 20.4 14.4 60 5.0 N 19 28 10 15 1013.7 1011.0 0.0
13/10:00am 20.9 19.1 14.5 67 3.9 NNW 17 26 9 14 1014.0 1011.4 0.0
13/09:30am 17.6 14.7 12.9 74 2.7 NNW 20 26 11 14 1014.2 1011.6 0.0
13/09:00am 15.9 13.3 11.9 77 2.3 N 17 24 9 13 1014.4 1011.8 0.0
13/08:30am 13.9 12.3 11.6 86 1.3 NNW 11 17 6 9 1014.6 1012.0 0.0
13/08:00am 12.4 10.3 11.1 92 0.7 NNW 13 20 7 11 1014.4 1011.8 0.0
13/07:30am 11.5 10.0 10.7 95 0.4 NW 9 15 5 8 1014.3 1011.7 0.0
13/07:00am 10.4 8.6 9.6 95 0.4 WNW 9 13 5 7 1014.4 1011.8 0.0
13/06:30am 10.9 8.9 10.1 95 0.4 WNW 11 15 6 8 1014.1 1011.5 0.0
13/06:00am 10.6 9.3 9.8 95 0.4 NNW 7 11 4 6 1014.0 1011.4 0.0
13/05:30am 10.9 10.2 10.1 95 0.4 NW 4 7 2 4 1013.8 1011.1 0.0
13/05:00am 11.3 10.2 10.5 95 0.4 NW 7 11 4 6 1013.7 1011.0 0.0
13/04:30am 11.8 10.9 11.2 96 0.3 NNW 7 9 4 5 1013.6 1010.9 0.0
13/04:00am 11.8 10.9 11.2 96 0.3 NW 7 11 4 6 1013.8 1011.1 0.0
13/03:30am 12.2 11.9 11.6 96 0.3 NW 4 11 2 6 1013.9 1011.2 0.0
13/03:00am 12.3 12.8 11.5 95 0.4 CALM 0 0 0 0 1014.1 1011.5 0.0
13/02:30am 12.3 12.8 11.5 95 0.4 CALM 0 0 0 0 1014.4 1011.8 0.0
13/02:00am 12.6 13.1 11.7 94 0.5 CALM 0 0 0 0 1014.6 1012.0 0.0
13/01:30am 13.6 14.4 12.7 94 0.5 CALM 0 0 0 0 1014.8 1012.2 0.0
13/01:00am 14.2 15.2 13.2 94 0.6 CALM 0 0 0 0 1015.0 1012.3 0.0
13/12:30am 14.4 15.4 13.3 93 0.6 CALM 0 0 0 0 1015.3 1012.7 0.0
13/12:00am 14.7 14.6 13.4 92 0.7 SSE 6 7 3 4 1015.4 1012.8 0.0
 
Date/Time
EDT
Temp
°C
App
Temp
°C
Dew
Point
Rel
Hum
%
Delta-T
°C
Wind Press
QNH
hPa
Press
MSL
hPa
Rain
since 9 am
mm
Dir
 
Spd
km/h
Gust
km/h
Spd
kts
Gust
kts
12/11:30pm 15.4 16.6 13.9 91 0.9 CALM 0 0 0 0 1015.5 1012.9 0.0
12/11:00pm 15.9 15.6 14.3 90 0.9 SE 9 11 5 6 1015.8 1013.2 0.0
12/10:30pm 17.0 17.8 14.8 87 1.3 SE 4 7 2 4 1015.9 1013.3 0.0
12/10:00pm 18.3 18.9 15.9 86 1.5 SSW 7 11 4 6 1015.9 1013.3 0.0
12/09:30pm 18.5 19.1 15.9 85 1.6 S 7 11 4 6 1015.9 1013.3 0.0
12/09:00pm 19.0 19.6 15.9 82 1.9 SSE 7 11 4 6 1015.7 1013.1 0.0
12/08:30pm 20.1 20.7 15.9 77 2.6 SSE 7 13 4 7 1015.5 1012.9 0.0
12/08:00pm 21.4 22.1 16.1 72 3.3 S 7 13 4 7 1015.3 1012.7 0.0
12/07:30pm 23.2 22.5 16.3 65 4.3 SE 15 22 8 12 1015.0 1012.3 0.0
12/07:00pm 24.3 23.3 16.6 62 4.9 SE 17 24 9 13 1014.7 1012.1 0.0
12/06:30pm 24.4 23.5 15.9 59 5.3 ESE 15 22 8 12 1014.5 1011.9 0.0
12/06:00pm 25.9 25.1 16.2 55 6.1 SE 15 26 8 14 1014.4 1011.8 0.0
12/05:30pm 25.0 23.3 14.8 53 6.3 SE 17 24 9 13 1014.2 1011.6 0.0
12/05:00pm 28.1 26.5 15.1 45 8.1 SE 17 30 9 16 1014.1 1011.5 0.0
12/04:30pm 29.0 27.0 8.7 28 11.5 N 9 17 5 9 1014.2 1011.6 0.0
12/04:00pm 28.8 25.7 7.4 26 11.9 NW 13 22 7 12 1014.4 1011.8 0.0
12/03:30pm 27.2 24.9 7.6 29 10.8 NW 9 19 5 10 1014.7 1012.1 0.0
12/03:00pm 27.7 25.0 7.5 28 11.2 SW 11 20 6 11 1015.1 1012.4 0.0
12/02:30pm 28.7 25.9 8.4 28 11.5 WSW 13 20 7 11 1015.4 1012.8 0.0
12/02:00pm 28.8 26.6 9.5 30 11.1 W 11 22 6 12 1015.6 1013.0 0.0
12/01:30pm 26.9 24.4 9.7 34 9.8 NNW 13 20 7 11 1015.8 1013.2 0.0
12/01:00pm 26.2 24.6 11.5 40 8.6 NNW 11 19 6 10 1016.1 1013.5 0.0
12/12:30pm 25.6 24.9 15.3 53 6.4 N 13 19 7 10 1016.4 1013.8 0.0
12/12:00pm 23.8 23.3 15.8 61 5.0 N 13 19 7 10 1017.0 1014.4 0.0
12/11:30am 22.6 22.0 15.7 65 4.3 NNW 13 17 7 9 1017.3 1014.7 0.0
12/11:00am 21.5 21.4 16.0 71 3.4 N 11 19 6 10 1017.6 1015.0 0.0
12/10:30am 19.6 19.2 14.0 70 3.3 NNW 9 15 5 8 1017.9 1015.4 0.0
12/10:00am 18.3 17.7 13.6 74 2.8 N 9 13 5 7 1018.2 1015.6 0.0
12/09:30am 17.7 18.1 13.6 77 2.4 NE 4 13 2 7 1018.5 1015.9 0.0
12/09:00am 16.6 16.3 13.3 81 1.9 NE 7 11 4 6 1018.7 1016.1 4.0
12/08:30am 15.9 15.6 13.2 84 1.6 N 7 11 4 6 1018.7 1016.1 4.0
12/08:00am 15.6 15.6 13.6 88 1.2 NNW 6 7 3 4 1018.5 1015.9 4.0
12/07:30am 15.3 15.3 13.7 90 0.9 N 6 9 3 5 1018.2 1015.6 4.0
12/07:00am 15.1 14.9 13.6 91 0.9 NNW 7 9 4 5 1017.9 1015.4 4.0
12/06:30am 14.9 14.3 13.6 92 0.8 N 9 15 5 8 1017.5 1014.9 4.0
12/06:00am 14.9 14.3 13.6 92 0.8 N 9 13 5 7 1017.2 1014.6 4.0
12/05:30am 14.9 15.7 13.6 92 0.8 NNW 2 7 1 4 1017.2 1014.6 4.0
12/05:00am 14.8 15.8 13.3 91 0.9 CALM 0 0 0 0 1017.0 1014.4 4.0
12/04:30am 14.7 15.7 13.2 91 0.9 CALM 0 0 0 0 1017.1 1014.5 4.0
12/04:00am 14.7 15.3 13.2 91 0.9 SE 2 7 1 4 1017.3 1014.7 4.0
12/03:30am 14.7 15.4 13.4 92 0.7 ESE 2 7 1 4 1017.5 1014.9 4.0
12/03:00am 14.8 15.1 13.5 92 0.7 SE 4 7 2 4 1017.6 1015.0 4.0
12/02:30am 14.8 15.1 13.5 92 0.7 SSE 4 9 2 5 1017.7 1015.1 4.0
12/02:00am 14.7 15.8 13.4 92 0.7 CALM 0 6 0 3 1017.9 1015.4 4.0
12/01:30am 14.6 14.9 13.3 92 0.7 SE 4 6 2 3 1018.3 1015.7 4.0
12/01:00am 14.7 15.5 13.6 93 0.6 SSW 2 6 1 3 1018.5 1015.9 4.0
12/12:30am 14.6 15.3 13.5 93 0.6 S 2 6 1 3 1018.6 1016.0 4.0
12/12:00am 14.5 14.2 13.4 93 0.6 SE 7 9 4 5 1018.8 1016.2 4.0
 
Date/Time
EDT
Temp
°C
App
Temp
°C
Dew
Point
Rel
Hum
%
Delta-T
°C
Wind Press
QNH
hPa
Press
MSL
hPa
Rain
since 9 am
mm
Dir
 
Spd
km/h
Gust
km/h
Spd
kts
Gust
kts
11/11:30pm 14.2 13.8 13.1 93 0.6 SSE 7 11 4 6 1019.0 1016.4 4.0
11/11:00pm 14.3 13.9 13.0 92 0.7 S 7 9 4 5 1019.2 1016.7 4.0
11/10:30pm 14.4 14.0 13.0 91 0.8 S 7 11 4 6 1019.3 1016.8 4.0
11/10:00pm 14.9 14.7 13.6 92 0.7 SW 7 11 4 6 1019.3 1016.8 4.0
11/09:30pm 14.9 14.4 13.8 93 0.6 SE 9 17 5 9 1018.9 1016.3 4.0
11/09:00pm 15.0 13.3 13.7 92 0.8 SE 15 24 8 13 1018.2 1015.6 4.0
11/08:30pm 15.6 14.1 14.1 91 0.9 SE 15 22 8 12 1017.5 1014.9 4.0
11/08:00pm 16.6 14.4 14.4 87 1.3 SE 19 28 10 15 1017.1 1014.5 0.2
11/07:30pm 17.9 16.3 15.0 83 1.7 SE 17 28 9 15 1016.8 1014.2 0.0
11/07:00pm 18.5 16.8 14.6 78 2.3 SSE 17 28 9 15 1016.4 1013.8 0.0
11/06:30pm 18.9 16.6 14.6 76 2.6 SE 20 32 11 17 1015.9 1013.3 0.0
11/06:00pm 19.5 17.2 14.7 74 2.9 SE 20 30 11 16 1015.6 1013.0 0.0
11/05:30pm 21.6 19.4 15.9 70 3.5 SE 22 33 12 18 1015.4 1012.8 0.0
11/05:00pm 20.2 18.3 15.2 73 3.0 SE 19 30 10 16 1015.3 1012.7 0.0

Other Formats:

Comma delimited format used in spreadsheet applications
http://www.bom.gov.au/fwo/IDV60801/IDV60801.94908.axf

JavaScript Object Notation format (JSON) in row-major order
http://www.bom.gov.au/fwo/IDV60801/IDV60801.94908.json